Time;durP1;ratioP1;P1;durP2;ratioP2;P2;SDS_P1;SDS_P2;PMS_P1;PMS_P2;Temp;Humidity;BMP_temperature;BMP_pressure;BME280_temperature;BME280_humidity;BME280_pressure;Samples;Min_cycle;Max_cycle;Signal;HPM_P1;HPM_P2
2021/03/17 00:00:28;;;;;;;12.27;7.20;;;0.00;99.90;;;;;;5053962;28;19925;-83
2021/03/17 00:03:13;;;;;;;13.40;6.85;;;0.00;99.90;;;;;;5053428;28;20402;-82
2021/03/17 00:05:59;;;;;;;;;;;0.10;99.90;;;;;;5053349;28;20040;-81
2021/03/17 00:08:44;;;;;;;11.80;5.57;;;0.10;99.90;;;;;;5053638;28;19931;-82
2021/03/17 00:11:29;;;;;;;15.88;6.55;;;0.20;99.90;;;;;;5038949;28;20049;-82
2021/03/17 00:14:18;;;;;;;9.30;6.72;;;0.20;99.90;;;;;;5039845;28;20611;-82
2021/03/17 00:17:04;;;;;;;22.00;6.25;;;0.30;99.90;;;;;;5074249;28;20049;-82
2021/03/17 00:19:49;;;;;;;24.98;7.63;;;0.20;99.90;;;;;;5038652;28;20127;-82
2021/03/17 00:22:34;;;;;;;21.65;6.18;;;0.40;99.90;;;;;;5052127;28;20139;-81
2021/03/17 00:25:22;;;;;;;10.93;6.60;;;0.50;99.90;;;;;;5037725;28;20057;-81
2021/03/17 00:28:08;;;;;;;13.90;5.63;;;0.30;99.90;;;;;;5052406;28;20048;-80
2021/03/17 00:30:53;;;;;;;21.77;6.65;;;0.20;99.90;;;;;;5037560;28;20128;-81
2021/03/17 00:33:38;;;;;;;12.48;5.32;;;0.20;99.90;;;;;;5037405;28;20086;-83
2021/03/17 00:36:23;;;;;;;13.50;5.53;;;0.20;99.90;;;;;;5036764;28;20084;-79
2021/03/17 00:39:08;;;;;;;14.15;6.00;;;0.20;99.90;;;;;;5032101;28;20519;-81
2021/03/17 00:41:54;;;;;;;;;;;0.30;99.90;;;;;;5050557;28;20056;-81
2021/03/17 00:44:40;;;;;;;12.98;6.85;;;0.30;99.90;;;;;;5052091;28;20078;-81
2021/03/17 00:47:25;;;;;;;;;;;0.40;99.90;;;;;;5036639;28;20048;-80
2021/03/17 00:49:53;;;;;;;11.98;5.88;;;0.40;99.90;;;;;;5019126;28;19924;-81
2021/03/17 00:52:22;;;;;;;13.50;7.20;;;0.50;99.90;;;;;;5034855;28;20132;-80
2021/03/17 00:55:07;;;;;;;11.15;5.15;;;0.30;99.90;;;;;;5037177;28;20045;-82
2021/03/17 00:57:56;;;;;;;13.82;5.57;;;0.40;99.90;;;;;;5035518;28;20539;-80
2021/03/17 01:00:23;;;;;;;8.48;5.28;;;0.40;99.90;;;;;;5035257;28;20061;-81
2021/03/17 01:02:50;;;;;;;11.20;4.80;;;0.50;99.90;;;;;;5018261;28;20131;-80
2021/03/17 01:05:17;;;;;;;7.15;5.00;;;0.50;99.90;;;;;;5048375;28;20103;-81
2021/03/17 01:07:44;;;;;;;12.98;5.75;;;0.60;99.90;;;;;;5015994;28;20505;-81
2021/03/17 01:10:18;;;;;;;9.95;5.72;;;0.50;99.90;;;;;;5049421;28;20610;-80
2021/03/17 01:12:46;;;;;;;15.73;5.80;;;0.50;99.90;;;;;;5034084;28;20045;-82
2021/03/17 01:15:18;;;;;;;11.15;6.25;;;0.60;99.90;;;;;;5022348;28;20041;-80
2021/03/17 01:17:44;;;;;;;13.07;6.28;;;0.80;99.90;;;;;;5014524;28;20410;-81
2021/03/17 01:20:12;;;;;;;11.88;6.20;;;0.60;99.90;;;;;;5013810;28;20049;-81
2021/03/17 01:22:39;;;;;;;16.63;6.78;;;0.60;99.90;;;;;;5031535;28;20089;-81
2021/03/17 01:25:11;;;;;;;14.30;5.68;;;0.60;99.90;;;;;;4999134;28;20079;-79
2021/03/17 01:27:37;;;;;;;10.88;5.93;;;0.70;99.90;;;;;;5033204;28;20049;-82
2021/03/17 01:30:06;;;;;;;14.65;5.55;;;0.70;99.90;;;;;;5016994;28;20124;-81
2021/03/17 01:32:34;;;;;;;9.50;5.07;;;0.70;99.90;;;;;;5017040;28;20294;-80
2021/03/17 01:35:01;;;;;;;17.50;5.57;;;0.80;99.90;;;;;;5029930;28;20049;-81
2021/03/17 01:37:27;;;;;;;13.43;6.22;;;0.90;99.90;;;;;;5034723;28;20049;-81
2021/03/17 01:39:53;;;;;;;14.02;6.93;;;1.00;99.90;;;;;;5037442;28;20151;-81
2021/03/17 01:42:19;;;;;;;13.80;5.97;;;1.00;99.90;;;;;;5021314;28;20483;-81
2021/03/17 01:44:50;;;;;;;12.35;6.47;;;1.10;99.90;;;;;;5023261;28;20152;-81
2021/03/17 01:47:16;;;;;;;14.95;6.70;;;1.10;99.90;;;;;;5037710;28;20106;-82
2021/03/17 01:49:42;;;;;;;8.30;5.70;;;1.10;99.90;;;;;;5051452;28;20123;-81
2021/03/17 01:52:09;;;;;;;8.50;5.80;;;1.10;99.90;;;;;;5018951;28;20071;-81
2021/03/17 01:54:36;;;;;;;10.30;5.50;;;1.10;99.90;;;;;;5052031;28;20120;-81
2021/03/17 01:57:02;;;;;;;8.77;5.90;;;1.20;99.90;;;;;;5018805;28;20128;-82
2021/03/17 01:59:31;;;;;;;19.83;6.07;;;1.10;99.90;;;;;;5034447;28;20063;-80
2021/03/17 02:01:58;;;;;;;15.73;6.32;;;1.10;99.90;;;;;;5017578;28;20064;-81
2021/03/17 02:04:24;;;;;;;19.88;7.20;;;1.20;99.90;;;;;;5034337;28;20052;-80
2021/03/17 02:06:51;;;;;;;15.23;7.50;;;1.20;99.90;;;;;;5032610;28;20143;-79
2021/03/17 02:09:18;;;;;;;12.73;6.32;;;1.10;99.90;;;;;;5030084;28;20045;-80
2021/03/17 02:11:53;;;;;;;17.00;5.97;;;1.20;99.90;;;;;;5033778;28;20103;-80
2021/03/17 02:14:34;;;;;;;12.63;6.38;;;1.20;99.90;;;;;;5034553;28;20102;-80
2021/03/17 02:17:15;;;;;;;9.55;6.43;;;1.30;99.90;;;;;;5018432;28;20148;-82
2021/03/17 02:20:14;;;;;;;12.63;6.82;;;1.30;99.90;;;;;;5050000;28;20048;-82
2021/03/17 02:22:52;;;;;;;20.73;7.25;;;1.20;99.90;;;;;;5026968;28;20142;-82
2021/03/17 02:26:08;;;;;;;13.02;6.47;;;1.20;99.90;;;;;;5017450;28;20070;-83
2021/03/17 02:28:34;;;;;;;16.45;6.40;;;1.20;99.90;;;;;;5021131;28;20049;-83
2021/03/17 02:31:25;;;;;;;15.75;7.30;;;1.20;99.90;;;;;;5029950;28;20465;-81
2021/03/17 02:34:00;;;;;;;14.23;6.30;;;1.20;99.90;;;;;;5014796;28;20057;-82
2021/03/17 02:36:51;;;;;;;14.00;7.25;;;1.30;99.90;;;;;;5013139;28;20130;-81
2021/03/17 02:39:26;;;;;;;13.98;7.53;;;1.20;99.90;;;;;;5025033;28;20136;-81
2021/03/17 02:42:16;;;;;;;12.90;6.93;;;1.40;99.90;;;;;;5014987;28;20506;-81
2021/03/17 02:44:48;;;;;;;10.18;6.40;;;1.50;99.90;;;;;;5048190;28;20106;-81
2021/03/17 02:47:16;;;;;;;10.98;7.18;;;1.50;99.90;;;;;;5033583;28;20123;-82
2021/03/17 02:49:47;;;;;;;18.65;7.88;;;1.60;99.90;;;;;;5016405;28;20045;-81
2021/03/17 02:52:14;;;;;;;15.38;8.15;;;1.50;99.90;;;;;;5016300;28;20103;-81
2021/03/17 02:54:44;;;;;;;15.25;7.63;;;1.50;99.90;;;;;;5034008;28;20098;-81
2021/03/17 02:57:18;;;;;;;24.75;8.88;;;1.50;99.90;;;;;;5033298;28;20056;-81
2021/03/17 02:59:52;;;;;;;14.77;7.85;;;1.40;99.90;;;;;;5033657;28;20052;-81
2021/03/17 03:02:20;;;;;;;20.95;10.07;;;1.30;99.90;;;;;;5048971;28;20048;-82
2021/03/17 03:04:49;;;;;;;18.50;7.85;;;1.30;99.90;;;;;;5032006;28;20615;-82
2021/03/17 03:07:17;;;;;;;20.13;9.10;;;1.30;99.90;;;;;;5049948;28;20080;-81
2021/03/17 03:09:47;;;;;;;25.63;8.90;;;1.40;99.90;;;;;;5032445;28;20045;-81
2021/03/17 03:12:14;;;;;;;21.30;10.13;;;1.40;99.90;;;;;;5066767;28;20048;-82
2021/03/17 03:14:41;;;;;;;19.90;9.63;;;1.50;99.90;;;;;;5033365;28;20037;-81
2021/03/17 03:17:11;;;;;;;19.40;8.25;;;1.40;99.90;;;;;;5032838;28;20106;-81
2021/03/17 03:19:47;;;;;;;14.63;7.25;;;1.50;99.90;;;;;;5034353;28;20055;-81
2021/03/17 03:22:14;;;;;;;27.15;9.77;;;1.40;99.90;;;;;;5033202;28;20048;-81
2021/03/17 03:24:42;;;;;;;19.58;7.93;;;1.30;99.90;;;;;;5033821;28;20107;-80
2021/03/17 03:27:09;;;;;;;22.60;8.15;;;1.30;99.90;;;;;;5049623;28;20057;-82
2021/03/17 03:29:36;;;;;;;27.25;8.48;;;1.30;99.90;;;;;;5016429;28;20105;-81
2021/03/17 03:32:06;;;;;;;20.35;8.73;;;1.30;99.90;;;;;;5032860;28;20084;-81
2021/03/17 03:34:33;;;;;;;16.85;9.68;;;1.30;99.90;;;;;;5033684;28;20060;-80
2021/03/17 03:36:59;;;;;;;29.83;9.38;;;1.30;99.90;;;;;;5032970;28;20063;-81
2021/03/17 03:39:25;;;;;;;19.65;8.88;;;1.30;99.90;;;;;;5029172;28;20053;-82
2021/03/17 03:41:53;;;;;;;18.98;8.23;;;1.30;99.90;;;;;;5016729;28;20706;-81
2021/03/17 03:44:19;;;;;;;25.80;10.88;;;1.40;99.90;;;;;;5032309;28;20079;-82
2021/03/17 03:46:46;;;;;;;15.32;7.72;;;1.40;99.90;;;;;;5040943;28;20053;-82
2021/03/17 03:49:14;;;;;;;19.92;8.95;;;1.50;99.90;;;;;;5048659;28;20056;-81
2021/03/17 03:51:46;;;;;;;18.58;9.18;;;1.60;99.90;;;;;;5015408;28;20069;-81
2021/03/17 03:54:24;;;;;;;19.25;9.60;;;1.60;99.90;;;;;;5050310;28;20208;-81
2021/03/17 03:57:01;;;;;;;14.50;8.38;;;1.60;99.90;;;;;;5033879;28;20045;-81
2021/03/17 03:59:41;;;;;;;23.88;8.63;;;1.60;99.90;;;;;;5030795;28;20053;-80
2021/03/17 04:02:11;;;;;;;21.67;8.52;;;1.60;99.90;;;;;;5015617;28;20155;-81
2021/03/17 04:04:42;;;;;;;21.38;8.85;;;1.60;99.90;;;;;;5034347;28;20083;-82
2021/03/17 04:07:10;;;;;;;19.80;9.57;;;1.50;99.90;;;;;;5033090;28;20049;-81
2021/03/17 04:10:01;;;;;;;32.15;9.98;;;1.50;99.90;;;;;;5049180;28;20051;-81
2021/03/17 04:12:28;;;;;;;30.70;9.82;;;1.50;99.90;;;;;;5049682;28;20049;-80
2021/03/17 04:14:58;;;;;;;17.80;8.75;;;1.50;99.90;;;;;;5013505;28;20065;-80
2021/03/17 04:17:36;;;;;;;18.70;9.57;;;1.60;99.90;;;;;;5034157;28;20490;-81
2021/03/17 04:20:13;;;;;;;22.20;8.30;;;1.50;99.90;;;;;;5050940;28;20667;-81
2021/03/17 04:22:42;;;;;;;27.05;9.73;;;1.60;99.90;;;;;;5050146;28;20060;-82
2021/03/17 04:25:10;;;;;;;21.55;8.60;;;1.50;99.90;;;;;;5049418;28;20084;-81
2021/03/17 04:27:40;;;;;;;19.65;8.70;;;1.60;99.90;;;;;;5032954;28;20072;-81
2021/03/17 04:30:08;;;;;;;19.92;10.13;;;1.60;99.90;;;;;;5032879;28;20136;-81
2021/03/17 04:32:37;;;;;;;28.88;10.20;;;1.50;99.90;;;;;;5018726;28;20045;-81
2021/03/17 04:35:06;;;;;;;28.02;10.43;;;1.40;99.90;;;;;;5033467;28;20115;-80
2021/03/17 04:37:34;;;;;;;22.33;9.30;;;1.40;99.90;;;;;;5030565;28;20049;-81
2021/03/17 04:40:02;;;;;;;29.63;10.70;;;1.50;99.90;;;;;;5033290;28;20045;-80
2021/03/17 04:42:29;;;;;;;30.38;10.27;;;1.50;99.90;;;;;;5034760;28;20560;-80
2021/03/17 04:44:56;;;;;;;30.73;10.70;;;1.50;99.90;;;;;;5036002;28;20116;-80
2021/03/17 04:47:25;;;;;;;19.92;9.57;;;1.50;99.90;;;;;;5020566;28;20041;-80
2021/03/17 04:49:53;;;;;;;27.92;10.18;;;1.50;99.90;;;;;;5053162;28;20068;-80
2021/03/17 04:52:22;;;;;;;26.73;10.00;;;1.50;99.90;;;;;;5037835;28;20041;-80
2021/03/17 04:54:49;;;;;;;27.33;10.77;;;1.40;99.90;;;;;;5035065;28;20143;-79
2021/03/17 04:57:21;;;;;;;25.58;12.80;;;1.50;99.90;;;;;;5035127;28;20122;-81
2021/03/17 04:59:49;;;;;;;25.38;11.82;;;1.40;99.90;;;;;;5038289;28;20195;-79
2021/03/17 05:02:20;;;;;;;25.95;12.00;;;1.60;99.90;;;;;;5035104;28;20092;-80
2021/03/17 05:04:48;;;;;;;22.35;11.27;;;1.50;99.90;;;;;;5037771;28;21167;-80
2021/03/17 05:07:16;;;;;;;26.98;11.82;;;1.50;99.90;;;;;;5037236;28;20063;-80
2021/03/17 05:09:43;;;;;;;25.83;12.88;;;1.50;99.90;;;;;;5038037;28;20087;-81
2021/03/17 05:12:10;;;;;;;24.17;12.18;;;1.50;99.90;;;;;;5019671;28;20079;-81
2021/03/17 05:14:37;;;;;;;28.13;12.88;;;1.40;99.90;;;;;;5036910;28;20076;-80
2021/03/17 05:17:04;;;;;;;31.13;14.07;;;1.40;99.90;;;;;;5020175;28;20417;-82
2021/03/17 05:19:32;;;;;;;25.08;14.25;;;1.40;99.90;;;;;;5037280;28;20080;-81
2021/03/17 05:22:01;;;;;;;42.28;16.45;;;1.40;99.90;;;;;;5037156;28;20501;-80
2021/03/17 05:24:28;;;;;;;33.38;15.35;;;1.50;99.90;;;;;;5019125;28;20103;-81
2021/03/17 05:26:55;;;;;;;46.30;18.13;;;1.40;99.90;;;;;;5036855;28;20142;-80
2021/03/17 05:29:24;;;;;;;39.22;16.25;;;1.50;99.90;;;;;;5020254;28;20072;-81
2021/03/17 05:31:52;;;;;;;41.10;17.77;;;1.50;99.90;;;;;;5019940;28;20394;-82
2021/03/17 05:34:19;;;;;;;44.42;18.17;;;1.50;99.90;;;;;;5036926;28;20512;-82
2021/03/17 05:36:47;;;;;;;37.28;16.58;;;1.50;99.90;;;;;;5015795;28;20133;-82
2021/03/17 05:39:14;;;;;;;41.38;17.02;;;1.50;99.90;;;;;;5050820;28;20159;-80
2021/03/17 05:41:41;;;;;;;47.38;18.52;;;1.50;99.90;;;;;;5052379;28;20145;-80
2021/03/17 05:44:09;;;;;;;41.10;17.15;;;1.50;99.90;;;;;;5023246;28;20061;-81
2021/03/17 05:46:35;;;;;;;37.47;15.55;;;1.60;99.90;;;;;;5050179;28;20477;-81
2021/03/17 05:49:02;;;;;;;37.80;15.80;;;1.50;99.90;;;;;;5040350;28;20033;-80
2021/03/17 05:51:29;;;;;;;40.33;17.23;;;1.60;99.90;;;;;;5055243;28;20132;-82
2021/03/17 05:53:56;;;;;;;40.53;17.27;;;1.50;99.90;;;;;;5055120;28;20106;-80
2021/03/17 05:56:23;;;;;;;35.35;16.75;;;1.50;99.90;;;;;;5039230;28;20040;-80
2021/03/17 05:58:51;;;;;;;37.65;17.65;;;1.50;99.90;;;;;;5038506;28;20095;-81
2021/03/17 06:01:18;;;;;;;47.70;18.50;;;1.60;99.90;;;;;;5035549;28;20072;-81
2021/03/17 06:03:47;;;;;;;38.47;17.30;;;1.70;99.90;;;;;;5018837;28;20513;-82
2021/03/17 06:06:18;;;;;;;42.38;17.05;;;1.60;99.90;;;;;;5036330;28;20045;-81
2021/03/17 06:08:46;;;;;;;44.85;18.65;;;1.70;99.90;;;;;;5053234;28;20065;-81
2021/03/17 06:11:13;;;;;;;45.13;18.52;;;1.70;99.90;;;;;;5053159;28;20053;-81
2021/03/17 06:13:50;;;;;;;50.25;19.35;;;1.80;99.90;;;;;;5016919;28;20057;-80
2021/03/17 06:16:20;;;;;;;48.70;18.80;;;1.70;99.90;;;;;;5015770;28;20050;-81
2021/03/17 06:18:54;;;;;;;41.97;19.85;;;1.60;99.90;;;;;;5031752;28;20075;-79
2021/03/17 06:21:21;;;;;;;37.47;18.38;;;1.60;99.90;;;;;;5032183;28;20057;-80
2021/03/17 06:23:56;;;;;;;36.53;18.85;;;1.70;99.90;;;;;;5016512;28;20049;-80
2021/03/17 06:26:24;;;;;;;44.38;17.33;;;1.80;99.90;;;;;;5026593;28;20123;-81
2021/03/17 06:28:50;;;;;;;43.10;18.48;;;1.80;99.90;;;;;;5018596;28;20056;-81
2021/03/17 06:31:21;;;;;;;36.60;18.08;;;1.70;99.90;;;;;;5017682;28;20049;-79
2021/03/17 06:33:53;;;;;;;42.30;19.75;;;1.80;99.90;;;;;;5019062;28;20045;-80
2021/03/17 06:36:22;;;;;;;41.33;17.65;;;1.70;99.90;;;;;;5028273;28;20065;-80
2021/03/17 06:38:49;;;;;;;47.05;19.42;;;1.70;99.90;;;;;;5013113;28;20076;-82
2021/03/17 06:41:18;;;;;;;68.50;28.30;;;1.70;99.90;;;;;;5030109;28;20045;-80
2021/03/17 06:43:49;;;;;;;45.65;23.08;;;1.60;99.90;;;;;;5041657;28;20053;-81
2021/03/17 06:46:18;;;;;;;64.22;26.05;;;1.60;99.90;;;;;;5018473;28;20041;-80
2021/03/17 06:48:57;;;;;;;42.75;21.88;;;1.70;99.90;;;;;;5034483;28;20360;-80
2021/03/17 06:51:28;;;;;;;43.28;19.70;;;1.70;99.90;;;;;;5031037;28;20567;-81
2021/03/17 06:53:56;;;;;;;44.38;20.20;;;1.70;99.90;;;;;;5031359;28;20056;-81
2021/03/17 06:56:49;;;;;;;29.92;17.77;;;1.80;99.90;;;;;;5015796;28;20075;-80
2021/03/17 06:59:15;;;;;;;42.78;20.30;;;1.70;99.90;;;;;;5031412;28;20048;-80
2021/03/17 07:01:43;;;;;;;42.20;20.90;;;1.60;99.90;;;;;;5016277;28;20052;-79
2021/03/17 07:04:19;;;;;;;33.42;20.13;;;1.60;99.90;;;;;;5032464;28;20059;-79
2021/03/17 07:06:47;;;;;;;46.33;19.80;;;1.70;99.90;;;;;;5032076;28;20118;-79
2021/03/17 07:09:21;;;;;;;35.95;20.17;;;1.70;99.90;;;;;;5033035;28;20328;-79
2021/03/17 07:11:50;;;;;;;32.33;18.13;;;1.80;99.90;;;;;;5015049;28;20065;-78
2021/03/17 07:14:24;;;;;;;34.20;19.25;;;1.80;99.90;;;;;;5048186;28;20138;-78
2021/03/17 07:16:50;;;;;;;29.98;16.67;;;1.80;99.90;;;;;;5047793;28;20141;-78
2021/03/17 07:19:36;;;;;;;36.58;17.83;;;1.80;99.90;;;;;;5049496;28;20132;-78
2021/03/17 07:22:08;;;;;;;29.45;15.98;;;1.70;99.90;;;;;;5048064;28;20056;-78
2021/03/17 07:24:38;;;;;;;34.67;16.75;;;1.70;99.90;;;;;;5028141;28;20117;-76
2021/03/17 07:27:11;;;;;;;27.67;17.60;;;1.70;99.90;;;;;;5041860;28;20057;-76
2021/03/17 07:29:38;;;;;;;22.27;15.80;;;1.70;99.90;;;;;;5044660;28;20092;-76
2021/03/17 07:32:04;;;;;;;25.02;16.00;;;1.80;99.90;;;;;;5043564;28;20762;-77
2021/03/17 07:34:31;;;;;;;23.52;15.50;;;1.80;99.90;;;;;;5045948;28;20098;-78
2021/03/17 07:37:02;;;;;;;23.95;15.35;;;1.70;99.90;;;;;;5009832;28;20129;-76
2021/03/17 07:39:38;;;;;;;23.77;14.40;;;1.70;99.90;;;;;;5011394;28;20077;-78
2021/03/17 07:42:13;;;;;;;23.13;15.35;;;1.80;99.90;;;;;;5027014;28;20068;-76
2021/03/17 07:44:42;;;;;;;32.58;17.27;;;1.90;99.90;;;;;;5045146;28;20056;-77
2021/03/17 07:47:11;;;;;;;22.23;13.50;;;1.80;99.90;;;;;;5027806;28;20674;-77
2021/03/17 07:49:46;;;;;;;19.55;14.75;;;1.80;99.90;;;;;;5029109;28;20482;-77
2021/03/17 07:52:17;;;;;;;28.38;15.27;;;1.90;99.90;;;;;;5026714;28;20033;-77
2021/03/17 07:54:50;;;;;;;24.80;14.05;;;1.90;99.90;;;;;;5018573;28;20049;-77
2021/03/17 07:57:18;;;;;;;20.30;15.05;;;1.90;99.90;;;;;;5026656;28;20494;-76
2021/03/17 07:59:49;;;;;;;22.13;14.13;;;2.00;99.90;;;;;;5043847;28;20063;-77
2021/03/17 08:02:17;;;;;;;17.30;12.32;;;2.00;99.90;;;;;;5026088;28;20563;-76
2021/03/17 08:04:46;;;;;;;24.73;13.90;;;2.10;99.90;;;;;;5027712;28;20548;-76
2021/03/17 08:07:14;;;;;;;28.05;16.23;;;2.20;99.90;;;;;;5026497;28;20048;-76
2021/03/17 08:09:42;;;;;;;22.10;15.15;;;2.30;99.90;;;;;;5044360;28;20497;-77
2021/03/17 08:12:10;;;;;;;33.53;19.40;;;2.40;99.90;;;;;;5041141;28;20502;-76
2021/03/17 08:14:41;;;;;;;17.35;14.40;;;2.40;99.90;;;;;;5045390;28;20057;-76
2021/03/17 08:17:10;;;;;;;22.27;14.82;;;2.50;99.90;;;;;;5047048;28;20121;-76
2021/03/17 08:20:11;;;;;;;15.88;12.38;;;2.50;99.90;;;;;;5068044;28;20609;-77
2021/03/17 08:22:38;;;;;;;12.98;11.68;;;2.50;99.90;;;;;;5035831;28;20061;-77
2021/03/17 08:25:09;;;;;;;14.32;11.60;;;2.50;99.90;;;;;;5031494;28;20486;-76
2021/03/17 08:27:36;;;;;;;15.30;12.63;;;2.50;99.90;;;;;;5050429;28;20041;-77
2021/03/17 08:30:06;;;;;;;20.55;13.77;;;2.60;99.90;;;;;;5030997;28;20041;-77
2021/03/17 08:32:55;;;;;;;16.42;14.70;;;2.50;99.90;;;;;;5024439;28;20199;-76
2021/03/17 08:35:22;;;;;;;15.20;12.95;;;2.50;99.90;;;;;;5052484;28;20076;-77
2021/03/17 08:37:55;;;;;;;17.92;14.43;;;2.40;99.90;;;;;;5038531;28;20041;-76
2021/03/17 08:40:27;;;;;;;23.52;14.57;;;2.50;99.90;;;;;;5048404;28;20579;-77
2021/03/17 08:43:36;;;;;;;16.10;13.95;;;2.40;99.90;;;;;;5047194;28;20053;-76
2021/03/17 08:46:18;;;;;;;18.70;15.38;;;2.40;99.90;;;;;;5041317;28;20099;-77
2021/03/17 08:49:06;;;;;;;14.52;12.77;;;2.40;99.90;;;;;;5033123;28;20045;-76
2021/03/17 08:51:48;;;;;;;13.95;12.65;;;2.30;99.90;;;;;;5030037;28;20131;-76
2021/03/17 08:54:29;;;;;;;14.85;11.60;;;2.20;99.90;;;;;;5044484;28;20558;-76
2021/03/17 08:57:04;;;;;;;14.15;12.73;;;2.10;99.90;;;;;;5028725;28;20053;-75
2021/03/17 08:59:46;;;;;;;16.85;12.40;;;2.10;99.90;;;;;;5046224;28;20466;-78
2021/03/17 09:02:25;;;;;;;16.52;14.10;;;2.20;99.90;;;;;;5030308;28;20069;-75
2021/03/17 09:04:55;;;;;;;15.13;13.80;;;2.30;99.90;;;;;;5047138;28;20064;-75
2021/03/17 09:07:28;;;;;;;14.02;12.60;;;2.20;99.90;;;;;;5029851;28;20562;-78
2021/03/17 09:10:13;;;;;;;17.92;13.93;;;2.20;99.90;;;;;;5046429;28;20072;-75
2021/03/17 09:12:39;;;;;;;16.35;13.43;;;2.40;99.90;;;;;;5010232;28;20095;-75
2021/03/17 09:15:12;;;;;;;15.80;14.50;;;2.50;99.90;;;;;;5029489;28;20136;-76
2021/03/17 09:17:50;;;;;;;13.60;12.65;;;2.60;99.90;;;;;;5046373;28;20080;-75
2021/03/17 09:20:31;;;;;;;12.75;11.60;;;2.70;99.90;;;;;;5024983;28;20490;-76
2021/03/17 09:22:58;;;;;;;13.00;11.93;;;2.80;99.90;;;;;;5026718;28;20115;-76
2021/03/17 09:25:28;;;;;;;13.75;12.32;;;2.90;99.90;;;;;;5026288;28;20061;-76
2021/03/17 09:28:01;;;;;;;15.55;12.90;;;3.00;99.90;;;;;;5028918;28;20135;-76
2021/03/17 09:30:32;;;;;;;14.60;13.35;;;3.10;99.90;;;;;;5045961;28;20069;-77
2021/03/17 09:33:19;;;;;;;15.30;14.20;;;3.10;99.90;;;;;;5012738;28;20064;-76
2021/03/17 09:35:52;;;;;;;15.15;13.88;;;3.10;99.90;;;;;;5011008;28;20128;-75
2021/03/17 09:38:19;;;;;;;14.18;12.77;;;3.10;99.90;;;;;;5013210;28;20045;-75
2021/03/17 09:40:56;;;;;;;17.48;15.40;;;3.10;99.90;;;;;;5029776;28;20045;-77
2021/03/17 09:43:39;;;;;;;14.45;13.32;;;3.00;99.90;;;;;;5029250;28;20053;-74
2021/03/17 09:46:32;;;;;;;16.83;15.65;;;3.10;99.90;;;;;;5005348;28;20139;-76
2021/03/17 09:49:05;;;;;;;16.80;15.55;;;2.90;99.90;;;;;;5029846;28;20599;-76
2021/03/17 09:51:36;;;;;;;15.43;14.30;;;2.90;99.90;;;;;;5011727;28;20570;-75
2021/03/17 09:54:07;;;;;;;16.48;15.13;;;2.80;99.90;;;;;;5028886;28;20673;-76
2021/03/17 09:56:46;;;;;;;16.00;14.57;;;2.80;99.90;;;;;;5028450;28;20063;-76
2021/03/17 09:59:26;;;;;;;16.88;15.20;;;3.00;99.90;;;;;;5029373;28;20157;-76
2021/03/17 10:02:04;;;;;;;14.40;13.20;;;3.20;99.90;;;;;;5028971;28;20083;-77
2021/03/17 10:04:37;;;;;;;14.75;13.63;;;3.20;99.90;;;;;;5046168;28;20165;-76
2021/03/17 10:07:05;;;;;;;16.77;15.20;;;3.00;99.90;;;;;;5010927;28;20122;-76
2021/03/17 10:09:35;;;;;;;16.05;14.60;;;2.90;99.90;;;;;;5011676;28;20052;-76
2021/03/17 10:12:07;;;;;;;15.88;14.40;;;2.80;99.90;;;;;;4984831;28;20060;-76
2021/03/17 10:14:37;;;;;;;15.60;14.15;;;2.70;99.90;;;;;;4993661;28;20513;-76
2021/03/17 10:17:06;;;;;;;14.68;13.48;;;2.70;99.90;;;;;;5000643;28;20109;-76
2021/03/17 10:19:35;;;;;;;16.95;14.00;;;2.70;99.90;;;;;;5025265;28;20052;-76
2021/03/17 10:22:02;;;;;;;14.85;13.52;;;2.70;99.90;;;;;;5025806;28;20781;-76
2021/03/17 10:24:30;;;;;;;13.80;13.10;;;2.80;99.90;;;;;;5029349;28;20079;-76
2021/03/17 10:26:57;;;;;;;13.73;12.90;;;2.70;99.90;;;;;;5044798;28;20122;-76
2021/03/17 10:29:24;;;;;;;13.52;12.63;;;2.70;99.90;;;;;;5028541;28;20049;-76
2021/03/17 10:31:55;;;;;;;14.35;13.40;;;2.70;99.90;;;;;;5028347;28;20420;-77
2021/03/17 10:34:27;;;;;;;14.52;13.23;;;2.70;99.90;;;;;;5028461;28;20052;-77
2021/03/17 10:36:55;;;;;;;15.10;14.02;;;2.90;99.90;;;;;;5006752;28;20156;-76
2021/03/17 10:39:35;;;;;;;23.40;14.27;;;3.00;99.90;;;;;;5020896;28;20766;-77
2021/03/17 10:42:03;;;;;;;14.48;13.38;;;3.10;99.90;;;;;;5040054;28;20142;-76
2021/03/17 10:44:31;;;;;;;14.30;12.95;;;3.30;99.90;;;;;;5043475;28;20171;-75
2021/03/17 10:47:11;;;;;;;15.02;13.98;;;3.30;99.90;;;;;;5026268;28;20760;-76
2021/03/17 10:49:45;;;;;;;13.75;12.95;;;3.30;99.90;;;;;;5041589;28;20049;-75
2021/03/17 10:52:12;;;;;;;14.93;13.70;;;3.40;99.90;;;;;;5043447;28;20049;-76
2021/03/17 10:54:44;;;;;;;14.73;13.63;;;3.50;99.90;;;;;;5011393;28;20076;-76
2021/03/17 10:57:23;;;;;;;14.48;13.57;;;3.70;99.90;;;;;;5044671;28;20052;-76
2021/03/17 10:59:51;;;;;;;13.95;13.15;;;3.70;99.90;;;;;;5028160;28;20648;-75
2021/03/17 11:02:28;;;;;;;13.98;12.88;;;3.80;99.90;;;;;;5028013;28;20053;-77
2021/03/17 11:05:15;;;;;;;13.23;11.95;;;3.70;99.90;;;;;;5027344;28;20140;-75
2021/03/17 11:07:54;;;;;;;13.13;12.40;;;3.50;99.90;;;;;;5027660;28;20083;-77
2021/03/17 11:10:49;;;;;;;15.38;11.93;;;3.50;99.90;;;;;;5027913;28;20401;-76
2021/03/17 11:13:16;;;;;;;13.07;12.48;;;3.60;99.90;;;;;;5022061;28;20052;-76
2021/03/17 11:15:51;;;;;;;14.63;13.55;;;3.40;99.90;;;;;;5023984;28;20110;-77
2021/03/17 11:18:31;;;;;;;12.98;11.82;;;3.40;99.90;;;;;;5040578;28;20663;-76
2021/03/17 11:21:03;;;;;;;13.27;12.10;;;3.40;99.90;;;;;;5040452;28;20033;-77
2021/03/17 11:23:40;;;;;;;12.32;11.35;;;3.50;99.90;;;;;;5044577;28;20061;-76
2021/03/17 11:26:21;;;;;;;12.80;11.80;;;3.50;99.90;;;;;;5009871;28;20256;-77
2021/03/17 11:28:49;;;;;;;12.98;11.82;;;3.50;99.90;;;;;;5027999;28;20613;-77
2021/03/17 11:31:33;;;;;;;12.75;11.52;;;3.40;99.90;;;;;;5010666;28;20484;-76
2021/03/17 11:34:02;;;;;;;13.57;12.18;;;3.60;99.90;;;;;;5011729;28;20049;-76
2021/03/17 11:36:30;;;;;;;12.23;11.30;;;3.60;99.90;;;;;;5041332;28;20049;-77
2021/03/17 11:38:58;;;;;;;12.77;11.80;;;3.70;99.90;;;;;;5026238;28;20041;-77
2021/03/17 11:41:26;;;;;;;11.90;11.25;;;3.50;99.90;;;;;;5007665;28;20054;-77
2021/03/17 11:43:53;;;;;;;12.27;11.43;;;3.70;99.90;;;;;;5022475;28;20061;-75
2021/03/17 11:46:19;;;;;;;11.70;10.57;;;3.70;99.90;;;;;;5008977;28;20052;-76
2021/03/17 11:48:46;;;;;;;11.40;10.57;;;3.60;99.90;;;;;;5043165;28;20056;-77
2021/03/17 11:51:14;;;;;;;12.35;10.88;;;3.60;99.90;;;;;;5047381;28;20513;-77
2021/03/17 11:53:40;;;;;;;13.45;12.10;;;3.60;99.90;;;;;;5047384;28;20064;-77
2021/03/17 11:56:07;;;;;;;11.68;11.07;;;3.70;99.90;;;;;;5031547;28;20052;-76
2021/03/17 11:58:35;;;;;;;13.77;12.07;;;3.80;99.90;;;;;;5049871;28;20056;-77
2021/03/17 12:01:03;;;;;;;13.18;12.15;;;3.80;99.90;;;;;;5015504;28;20044;-77
2021/03/17 12:03:44;;;;;;;13.27;12.57;;;3.80;99.90;;;;;;5047773;28;20478;-76
2021/03/17 12:06:11;;;;;;;13.65;12.85;;;3.80;99.90;;;;;;5033787;28;20056;-77
2021/03/17 12:08:38;;;;;;;13.65;12.68;;;3.80;99.90;;;;;;5027604;28;20977;-76
2021/03/17 12:11:17;;;;;;;16.33;12.65;;;4.00;99.90;;;;;;5022407;28;20102;-76
2021/03/17 12:13:43;;;;;;;12.98;11.82;;;3.90;99.90;;;;;;5047672;28;20068;-76
2021/03/17 12:16:11;;;;;;;13.60;12.63;;;3.80;99.90;;;;;;5029891;28;20045;-77
2021/03/17 12:18:38;;;;;;;13.88;12.55;;;3.90;99.90;;;;;;5030405;28;20053;-76
2021/03/17 12:21:05;;;;;;;13.85;12.75;;;4.00;99.90;;;;;;5014498;28;20574;-77
2021/03/17 12:23:31;;;;;;;14.02;13.10;;;3.80;99.90;;;;;;5014370;28;20041;-74
2021/03/17 12:25:57;;;;;;;15.65;14.65;;;3.90;99.90;;;;;;5048570;28;20049;-74
2021/03/17 12:28:24;;;;;;;15.38;14.48;;;3.90;99.90;;;;;;5047554;28;20067;-74
2021/03/17 12:30:50;;;;;;;16.27;15.23;;;3.80;99.90;;;;;;5026701;28;20052;-72
2021/03/17 12:33:17;;;;;;;15.65;14.50;;;3.80;99.90;;;;;;5030388;28;20475;-72
2021/03/17 12:35:43;;;;;;;14.90;14.00;;;3.90;99.90;;;;;;5047561;28;20049;-73
2021/03/17 12:38:10;;;;;;;15.88;14.45;;;4.00;99.90;;;;;;5046795;28;20444;-73
2021/03/17 12:40:36;;;;;;;15.63;14.40;;;4.00;99.90;;;;;;5047932;28;20115;-74
2021/03/17 12:43:03;;;;;;;15.80;14.70;;;3.90;99.90;;;;;;5014150;28;20064;-72
2021/03/17 12:45:45;;;;;;;16.50;15.25;;;3.80;99.90;;;;;;5042501;28;20365;-74
2021/03/17 12:48:13;;;;;;;14.70;13.90;;;3.90;99.90;;;;;;5024551;28;20045;-73
2021/03/17 12:50:40;;;;;;;15.82;14.63;;;4.20;99.90;;;;;;5042037;28;20072;-74
2021/03/17 12:53:07;;;;;;;17.45;16.00;;;4.10;99.90;;;;;;5027458;28;20045;-72
2021/03/17 12:55:34;;;;;;;16.55;15.18;;;4.10;99.90;;;;;;5046872;28;20048;-74
2021/03/17 12:58:01;;;;;;;15.88;15.07;;;4.10;99.90;;;;;;5046325;28;20397;-74
2021/03/17 13:00:29;;;;;;;16.08;14.90;;;4.40;99.90;;;;;;5027320;28;20053;-74
2021/03/17 13:02:56;;;;;;;16.20;15.07;;;4.40;99.90;;;;;;5028835;28;20664;-73
2021/03/17 13:05:22;;;;;;;18.88;17.33;;;4.50;99.90;;;;;;5013344;28;20049;-74